sensor_id;sensor_type;location;lat;lon;timestamp;P1;durP1;ratioP1;P2;durP2;ratioP2
37431;SDS011;23292;51.300;6.252;2023-01-25T00:00:00;40.22;;;23.20;;
37431;SDS011;23292;51.300;6.252;2023-01-25T00:02:30;39.22;;;23.75;;
37431;SDS011;23292;51.300;6.252;2023-01-25T00:04:56;41.05;;;23.05;;
37431;SDS011;23292;51.300;6.252;2023-01-25T00:07:23;41.88;;;24.02;;
37431;SDS011;23292;51.300;6.252;2023-01-25T00:09:50;43.72;;;23.50;;
37431;SDS011;23292;51.300;6.252;2023-01-25T00:12:17;39.80;;;23.13;;
37431;SDS011;23292;51.300;6.252;2023-01-25T00:14:44;45.55;;;24.20;;
37431;SDS011;23292;51.300;6.252;2023-01-25T00:17:10;43.17;;;22.73;;
37431;SDS011;23292;51.300;6.252;2023-01-25T00:19:37;41.95;;;23.00;;
37431;SDS011;23292;51.300;6.252;2023-01-25T00:22:04;43.47;;;24.35;;
37431;SDS011;23292;51.300;6.252;2023-01-25T00:24:31;41.72;;;24.67;;
37431;SDS011;23292;51.300;6.252;2023-01-25T00:26:57;42.80;;;24.00;;
37431;SDS011;23292;51.300;6.252;2023-01-25T00:29:24;42.97;;;24.20;;
37431;SDS011;23292;51.300;6.252;2023-01-25T00:34:42;46.03;;;25.73;;
37431;SDS011;23292;51.300;6.252;2023-01-25T00:38:00;43.60;;;23.92;;
37431;SDS011;23292;51.300;6.252;2023-01-25T00:40:09;43.20;;;23.60;;
37431;SDS011;23292;51.300;6.252;2023-01-25T00:42:38;40.72;;;23.55;;
37431;SDS011;23292;51.300;6.252;2023-01-25T00:45:05;45.88;;;23.63;;
37431;SDS011;23292;51.300;6.252;2023-01-25T00:47:33;45.10;;;24.63;;
37431;SDS011;23292;51.300;6.252;2023-01-25T00:50:03;47.70;;;25.10;;
37431;SDS011;23292;51.300;6.252;2023-01-25T00:52:31;46.03;;;25.35;;
37431;SDS011;23292;51.300;6.252;2023-01-25T00:54:58;47.80;;;25.25;;
37431;SDS011;23292;51.300;6.252;2023-01-25T00:57:24;46.05;;;25.33;;
37431;SDS011;23292;51.300;6.252;2023-01-25T00:59:51;41.95;;;24.25;;
37431;SDS011;23292;51.300;6.252;2023-01-25T01:02:19;48.78;;;25.60;;
37431;SDS011;23292;51.300;6.252;2023-01-25T01:04:45;48.13;;;25.30;;
37431;SDS011;23292;51.300;6.252;2023-01-25T01:07:13;47.10;;;26.33;;
37431;SDS011;23292;51.300;6.252;2023-01-25T01:09:40;43.17;;;24.27;;
37431;SDS011;23292;51.300;6.252;2023-01-25T01:12:07;38.20;;;22.40;;
37431;SDS011;23292;51.300;6.252;2023-01-25T01:14:34;40.33;;;23.63;;
37431;SDS011;23292;51.300;6.252;2023-01-25T01:17:01;43.78;;;23.10;;
37431;SDS011;23292;51.300;6.252;2023-01-25T01:19:28;41.92;;;23.73;;
37431;SDS011;23292;51.300;6.252;2023-01-25T01:21:54;41.15;;;23.17;;
37431;SDS011;23292;51.300;6.252;2023-01-25T01:24:21;42.83;;;23.67;;
37431;SDS011;23292;51.300;6.252;2023-01-25T01:26:48;44.30;;;24.40;;
37431;SDS011;23292;51.300;6.252;2023-01-25T01:29:15;43.03;;;24.27;;
37431;SDS011;23292;51.300;6.252;2023-01-25T01:31:42;41.78;;;24.45;;
37431;SDS011;23292;51.300;6.252;2023-01-25T01:34:19;44.42;;;24.63;;
37431;SDS011;23292;51.300;6.252;2023-01-25T01:36:45;43.45;;;24.67;;
37431;SDS011;23292;51.300;6.252;2023-01-25T01:39:14;45.72;;;26.23;;
37431;SDS011;23292;51.300;6.252;2023-01-25T01:41:41;42.40;;;23.85;;
37431;SDS011;23292;51.300;6.252;2023-01-25T01:44:17;42.15;;;24.65;;
37431;SDS011;23292;51.300;6.252;2023-01-25T01:46:54;38.75;;;23.25;;
37431;SDS011;23292;51.300;6.252;2023-01-25T01:49:28;39.63;;;23.90;;
37431;SDS011;23292;51.300;6.252;2023-01-25T01:52:06;45.53;;;23.67;;
37431;SDS011;23292;51.300;6.252;2023-01-25T01:54:40;45.67;;;24.27;;
37431;SDS011;23292;51.300;6.252;2023-01-25T01:59:43;42.45;;;24.88;;
37431;SDS011;23292;51.300;6.252;2023-01-25T02:02:21;40.75;;;23.90;;
37431;SDS011;23292;51.300;6.252;2023-01-25T02:04:50;45.53;;;24.20;;
37431;SDS011;23292;51.300;6.252;2023-01-25T02:07:22;38.80;;;22.75;;
37431;SDS011;23292;51.300;6.252;2023-01-25T02:10:01;41.05;;;22.63;;
37431;SDS011;23292;51.300;6.252;2023-01-25T02:12:31;40.17;;;23.17;;
37431;SDS011;23292;51.300;6.252;2023-01-25T02:14:58;43.13;;;23.58;;
37431;SDS011;23292;51.300;6.252;2023-01-25T02:17:29;41.30;;;23.77;;
37431;SDS011;23292;51.300;6.252;2023-01-25T02:25:21;40.97;;;23.77;;
37431;SDS011;23292;51.300;6.252;2023-01-25T02:30:35;47.78;;;24.75;;
37431;SDS011;23292;51.300;6.252;2023-01-25T02:33:03;44.42;;;24.90;;
37431;SDS011;23292;51.300;6.252;2023-01-25T02:35:37;42.58;;;25.52;;
37431;SDS011;23292;51.300;6.252;2023-01-25T02:38:07;47.85;;;25.20;;
37431;SDS011;23292;51.300;6.252;2023-01-25T02:40:44;49.10;;;26.23;;
37431;SDS011;23292;51.300;6.252;2023-01-25T02:43:14;45.35;;;25.65;;
37431;SDS011;23292;51.300;6.252;2023-01-25T02:45:43;49.53;;;28.05;;
37431;SDS011;23292;51.300;6.252;2023-01-25T02:48:12;57.38;;;27.63;;
37431;SDS011;23292;51.300;6.252;2023-01-25T02:50:39;49.85;;;27.55;;
37431;SDS011;23292;51.300;6.252;2023-01-25T02:53:06;50.10;;;25.55;;
37431;SDS011;23292;51.300;6.252;2023-01-25T02:55:33;49.08;;;26.95;;
37431;SDS011;23292;51.300;6.252;2023-01-25T02:58:00;54.08;;;29.02;;
37431;SDS011;23292;51.300;6.252;2023-01-25T03:00:27;56.85;;;29.40;;
37431;SDS011;23292;51.300;6.252;2023-01-25T03:02:54;50.80;;;27.55;;
37431;SDS011;23292;51.300;6.252;2023-01-25T03:05:22;59.25;;;28.55;;
37431;SDS011;23292;51.300;6.252;2023-01-25T03:07:49;54.67;;;30.10;;
37431;SDS011;23292;51.300;6.252;2023-01-25T03:10:16;56.88;;;29.33;;
37431;SDS011;23292;51.300;6.252;2023-01-25T03:12:43;56.08;;;28.55;;
37431;SDS011;23292;51.300;6.252;2023-01-25T03:15:10;52.17;;;28.42;;
37431;SDS011;23292;51.300;6.252;2023-01-25T03:17:37;50.70;;;26.80;;
37431;SDS011;23292;51.300;6.252;2023-01-25T03:20:04;49.50;;;26.88;;
37431;SDS011;23292;51.300;6.252;2023-01-25T03:22:32;50.45;;;26.67;;
37431;SDS011;23292;51.300;6.252;2023-01-25T03:24:59;51.15;;;27.52;;
37431;SDS011;23292;51.300;6.252;2023-01-25T03:27:28;52.65;;;27.58;;
37431;SDS011;23292;51.300;6.252;2023-01-25T03:30:01;47.03;;;26.25;;
37431;SDS011;23292;51.300;6.252;2023-01-25T03:32:31;54.22;;;26.40;;
37431;SDS011;23292;51.300;6.252;2023-01-25T03:35:03;55.67;;;28.92;;
37431;SDS011;23292;51.300;6.252;2023-01-25T03:37:32;53.85;;;28.20;;
37431;SDS011;23292;51.300;6.252;2023-01-25T03:39:59;49.50;;;26.60;;
37431;SDS011;23292;51.300;6.252;2023-01-25T03:42:26;47.80;;;27.13;;
37431;SDS011;23292;51.300;6.252;2023-01-25T03:44:55;53.58;;;28.17;;
37431;SDS011;23292;51.300;6.252;2023-01-25T03:47:22;53.30;;;27.92;;
37431;SDS011;23292;51.300;6.252;2023-01-25T03:49:50;53.47;;;27.48;;
37431;SDS011;23292;51.300;6.252;2023-01-25T03:52:17;52.28;;;26.73;;
37431;SDS011;23292;51.300;6.252;2023-01-25T03:54:46;48.30;;;25.83;;
37431;SDS011;23292;51.300;6.252;2023-01-25T03:57:13;52.15;;;27.25;;
37431;SDS011;23292;51.300;6.252;2023-01-25T03:59:54;51.63;;;26.52;;
37431;SDS011;23292;51.300;6.252;2023-01-25T04:02:21;46.42;;;25.33;;
37431;SDS011;23292;51.300;6.252;2023-01-25T04:04:48;47.80;;;26.33;;
37431;SDS011;23292;51.300;6.252;2023-01-25T04:07:17;49.55;;;25.67;;
37431;SDS011;23292;51.300;6.252;2023-01-25T04:09:45;49.40;;;27.48;;
37431;SDS011;23292;51.300;6.252;2023-01-25T04:12:11;51.15;;;27.85;;
37431;SDS011;23292;51.300;6.252;2023-01-25T04:14:38;55.47;;;29.35;;
37431;SDS011;23292;51.300;6.252;2023-01-25T04:17:16;50.38;;;26.45;;
37431;SDS011;23292;51.300;6.252;2023-01-25T04:19:50;52.33;;;26.75;;
37431;SDS011;23292;51.300;6.252;2023-01-25T04:22:20;54.42;;;27.65;;
37431;SDS011;23292;51.300;6.252;2023-01-25T04:24:49;52.40;;;28.00;;
37431;SDS011;23292;51.300;6.252;2023-01-25T04:27:16;48.95;;;26.73;;
37431;SDS011;23292;51.300;6.252;2023-01-25T04:29:53;47.20;;;26.00;;
37431;SDS011;23292;51.300;6.252;2023-01-25T04:32:22;47.95;;;27.30;;
37431;SDS011;23292;51.300;6.252;2023-01-25T04:34:49;48.00;;;26.27;;
37431;SDS011;23292;51.300;6.252;2023-01-25T04:37:20;49.63;;;26.33;;
37431;SDS011;23292;51.300;6.252;2023-01-25T04:39:54;48.47;;;26.20;;
37431;SDS011;23292;51.300;6.252;2023-01-25T04:42:21;50.03;;;26.35;;
37431;SDS011;23292;51.300;6.252;2023-01-25T04:44:52;51.95;;;27.50;;
37431;SDS011;23292;51.300;6.252;2023-01-25T04:47:19;49.22;;;26.00;;
37431;SDS011;23292;51.300;6.252;2023-01-25T04:49:45;46.08;;;25.35;;
37431;SDS011;23292;51.300;6.252;2023-01-25T04:52:15;45.78;;;25.60;;
37431;SDS011;23292;51.300;6.252;2023-01-25T04:54:42;50.80;;;27.27;;
37431;SDS011;23292;51.300;6.252;2023-01-25T04:57:10;46.78;;;26.15;;
37431;SDS011;23292;51.300;6.252;2023-01-25T04:59:40;51.95;;;27.50;;
37431;SDS011;23292;51.300;6.252;2023-01-25T05:02:07;51.83;;;28.60;;
37431;SDS011;23292;51.300;6.252;2023-01-25T05:04:34;55.40;;;28.08;;
37431;SDS011;23292;51.300;6.252;2023-01-25T05:07:00;47.13;;;25.20;;
37431;SDS011;23292;51.300;6.252;2023-01-25T05:09:27;54.03;;;28.73;;
37431;SDS011;23292;51.300;6.252;2023-01-25T05:11:54;48.88;;;27.27;;
37431;SDS011;23292;51.300;6.252;2023-01-25T05:14:44;50.20;;;27.15;;
37431;SDS011;23292;51.300;6.252;2023-01-25T05:17:11;52.85;;;27.50;;
37431;SDS011;23292;51.300;6.252;2023-01-25T05:19:38;51.88;;;27.02;;
37431;SDS011;23292;51.300;6.252;2023-01-25T05:22:12;52.35;;;26.83;;
37431;SDS011;23292;51.300;6.252;2023-01-25T05:24:45;48.28;;;26.77;;
37431;SDS011;23292;51.300;6.252;2023-01-25T05:27:15;51.78;;;27.85;;
37431;SDS011;23292;51.300;6.252;2023-01-25T05:29:52;51.05;;;27.05;;
37431;SDS011;23292;51.300;6.252;2023-01-25T05:32:25;52.58;;;29.55;;
37431;SDS011;23292;51.300;6.252;2023-01-25T05:34:52;59.35;;;30.83;;
37431;SDS011;23292;51.300;6.252;2023-01-25T05:37:19;50.50;;;27.50;;
37431;SDS011;23292;51.300;6.252;2023-01-25T05:39:53;51.28;;;26.42;;
37431;SDS011;23292;51.300;6.252;2023-01-25T05:42:20;49.40;;;27.40;;
37431;SDS011;23292;51.300;6.252;2023-01-25T05:44:47;48.85;;;26.77;;
37431;SDS011;23292;51.300;6.252;2023-01-25T05:47:15;51.90;;;27.85;;
37431;SDS011;23292;51.300;6.252;2023-01-25T05:49:43;57.70;;;28.52;;
37431;SDS011;23292;51.300;6.252;2023-01-25T05:52:17;52.75;;;28.60;;
37431;SDS011;23292;51.300;6.252;2023-01-25T05:54:44;52.47;;;27.98;;
37431;SDS011;23292;51.300;6.252;2023-01-25T05:57:13;58.03;;;28.95;;
37431;SDS011;23292;51.300;6.252;2023-01-25T05:59:40;57.50;;;28.00;;
37431;SDS011;23292;51.300;6.252;2023-01-25T06:02:09;52.33;;;27.35;;
37431;SDS011;23292;51.300;6.252;2023-01-25T06:04:37;53.67;;;27.80;;
37431;SDS011;23292;51.300;6.252;2023-01-25T06:07:04;51.85;;;27.67;;
37431;SDS011;23292;51.300;6.252;2023-01-25T06:09:32;49.13;;;26.45;;
37431;SDS011;23292;51.300;6.252;2023-01-25T06:11:59;52.72;;;28.27;;
37431;SDS011;23292;51.300;6.252;2023-01-25T06:14:26;53.80;;;29.30;;
37431;SDS011;23292;51.300;6.252;2023-01-25T06:16:53;53.53;;;28.85;;
37431;SDS011;23292;51.300;6.252;2023-01-25T06:19:38;56.60;;;29.80;;
37431;SDS011;23292;51.300;6.252;2023-01-25T06:22:27;54.60;;;29.77;;
37431;SDS011;23292;51.300;6.252;2023-01-25T06:24:54;61.10;;;31.77;;
37431;SDS011;23292;51.300;6.252;2023-01-25T06:27:21;62.90;;;32.33;;
37431;SDS011;23292;51.300;6.252;2023-01-25T06:29:47;61.95;;;31.33;;
37431;SDS011;23292;51.300;6.252;2023-01-25T06:32:15;55.28;;;25.60;;
37431;SDS011;23292;51.300;6.252;2023-01-25T06:34:42;51.65;;;25.65;;
37431;SDS011;23292;51.300;6.252;2023-01-25T06:37:17;54.90;;;29.05;;
37431;SDS011;23292;51.300;6.252;2023-01-25T06:39:45;54.63;;;27.60;;
37431;SDS011;23292;51.300;6.252;2023-01-25T06:42:12;52.20;;;26.80;;
37431;SDS011;23292;51.300;6.252;2023-01-25T06:44:38;54.75;;;27.10;;
37431;SDS011;23292;51.300;6.252;2023-01-25T06:47:07;59.00;;;30.70;;
37431;SDS011;23292;51.300;6.252;2023-01-25T06:49:34;56.92;;;29.13;;
37431;SDS011;23292;51.300;6.252;2023-01-25T06:52:01;60.85;;;30.10;;
37431;SDS011;23292;51.300;6.252;2023-01-25T06:54:27;62.13;;;30.83;;
37431;SDS011;23292;51.300;6.252;2023-01-25T06:56:54;58.92;;;29.02;;
37431;SDS011;23292;51.300;6.252;2023-01-25T06:59:21;60.25;;;29.67;;
37431;SDS011;23292;51.300;6.252;2023-01-25T07:01:48;58.97;;;30.50;;
37431;SDS011;23292;51.300;6.252;2023-01-25T07:04:15;60.22;;;30.90;;
37431;SDS011;23292;51.300;6.252;2023-01-25T07:06:42;57.05;;;29.85;;
37431;SDS011;23292;51.300;6.252;2023-01-25T07:09:09;57.95;;;29.67;;
37431;SDS011;23292;51.300;6.252;2023-01-25T07:11:38;59.20;;;29.95;;
37431;SDS011;23292;51.300;6.252;2023-01-25T07:14:05;58.47;;;29.23;;
37431;SDS011;23292;51.300;6.252;2023-01-25T07:16:32;62.80;;;31.33;;
37431;SDS011;23292;51.300;6.252;2023-01-25T07:19:03;57.80;;;31.27;;
37431;SDS011;23292;51.300;6.252;2023-01-25T07:21:30;56.55;;;29.35;;
37431;SDS011;23292;51.300;6.252;2023-01-25T07:24:00;57.65;;;29.95;;
37431;SDS011;23292;51.300;6.252;2023-01-25T07:26:28;59.20;;;31.70;;
37431;SDS011;23292;51.300;6.252;2023-01-25T07:28:56;63.50;;;31.05;;
37431;SDS011;23292;51.300;6.252;2023-01-25T07:31:25;59.92;;;30.63;;
37431;SDS011;23292;51.300;6.252;2023-01-25T07:33:52;63.08;;;31.88;;
37431;SDS011;23292;51.300;6.252;2023-01-25T07:36:20;66.68;;;32.13;;
37431;SDS011;23292;51.300;6.252;2023-01-25T07:38:48;62.63;;;32.63;;
37431;SDS011;23292;51.300;6.252;2023-01-25T07:41:18;63.00;;;31.65;;
37431;SDS011;23292;51.300;6.252;2023-01-25T07:43:45;64.50;;;30.98;;
37431;SDS011;23292;51.300;6.252;2023-01-25T07:46:18;56.78;;;29.02;;
37431;SDS011;23292;51.300;6.252;2023-01-25T07:48:46;60.33;;;29.15;;
37431;SDS011;23292;51.300;6.252;2023-01-25T07:51:14;59.70;;;30.27;;
37431;SDS011;23292;51.300;6.252;2023-01-25T07:53:49;60.15;;;30.52;;
37431;SDS011;23292;51.300;6.252;2023-01-25T07:56:18;58.58;;;29.92;;
37431;SDS011;23292;51.300;6.252;2023-01-25T07:58:46;57.63;;;29.17;;
37431;SDS011;23292;51.300;6.252;2023-01-25T08:01:16;56.58;;;28.02;;
37431;SDS011;23292;51.300;6.252;2023-01-25T08:03:45;54.95;;;27.38;;
37431;SDS011;23292;51.300;6.252;2023-01-25T08:06:12;61.33;;;30.25;;
37431;SDS011;23292;51.300;6.252;2023-01-25T08:08:43;60.78;;;30.60;;
37431;SDS011;23292;51.300;6.252;2023-01-25T08:11:20;60.35;;;29.90;;
37431;SDS011;23292;51.300;6.252;2023-01-25T08:13:48;59.88;;;30.45;;
37431;SDS011;23292;51.300;6.252;2023-01-25T08:16:16;61.15;;;30.40;;
37431;SDS011;23292;51.300;6.252;2023-01-25T08:18:48;59.33;;;27.75;;
37431;SDS011;23292;51.300;6.252;2023-01-25T08:21:16;54.83;;;28.50;;
37431;SDS011;23292;51.300;6.252;2023-01-25T08:23:43;56.63;;;28.02;;
37431;SDS011;23292;51.300;6.252;2023-01-25T08:26:10;59.42;;;28.70;;
37431;SDS011;23292;51.300;6.252;2023-01-25T08:28:39;57.67;;;28.67;;
37431;SDS011;23292;51.300;6.252;2023-01-25T08:31:08;56.67;;;28.33;;
37431;SDS011;23292;51.300;6.252;2023-01-25T08:33:39;56.85;;;28.50;;
37431;SDS011;23292;51.300;6.252;2023-01-25T08:36:08;56.83;;;28.90;;
37431;SDS011;23292;51.300;6.252;2023-01-25T08:38:35;53.30;;;27.90;;
37431;SDS011;23292;51.300;6.252;2023-01-25T08:41:06;57.53;;;28.63;;
37431;SDS011;23292;51.300;6.252;2023-01-25T08:43:43;55.20;;;27.50;;
37431;SDS011;23292;51.300;6.252;2023-01-25T08:46:11;61.88;;;30.30;;
37431;SDS011;23292;51.300;6.252;2023-01-25T08:48:39;56.28;;;28.52;;
37431;SDS011;23292;51.300;6.252;2023-01-25T08:51:07;52.08;;;26.80;;
37431;SDS011;23292;51.300;6.252;2023-01-25T08:53:34;54.25;;;27.95;;
37431;SDS011;23292;51.300;6.252;2023-01-25T08:56:05;50.70;;;26.85;;
37431;SDS011;23292;51.300;6.252;2023-01-25T08:58:34;56.65;;;28.65;;
37431;SDS011;23292;51.300;6.252;2023-01-25T09:01:04;53.30;;;26.63;;
37431;SDS011;23292;51.300;6.252;2023-01-25T09:03:36;53.45;;;28.25;;
37431;SDS011;23292;51.300;6.252;2023-01-25T09:06:05;58.78;;;29.50;;
37431;SDS011;23292;51.300;6.252;2023-01-25T09:08:33;58.72;;;30.45;;
37431;SDS011;23292;51.300;6.252;2023-01-25T09:11:00;58.72;;;29.48;;
37431;SDS011;23292;51.300;6.252;2023-01-25T09:13:28;58.60;;;30.30;;
37431;SDS011;23292;51.300;6.252;2023-01-25T09:15:59;57.97;;;29.98;;
37431;SDS011;23292;51.300;6.252;2023-01-25T09:18:34;56.00;;;28.30;;
37431;SDS011;23292;51.300;6.252;2023-01-25T09:21:09;60.92;;;30.10;;
37431;SDS011;23292;51.300;6.252;2023-01-25T09:23:37;56.47;;;28.30;;
37431;SDS011;23292;51.300;6.252;2023-01-25T09:26:16;56.35;;;28.73;;
37431;SDS011;23292;51.300;6.252;2023-01-25T09:28:46;58.03;;;28.33;;
37431;SDS011;23292;51.300;6.252;2023-01-25T09:31:14;59.13;;;29.98;;
37431;SDS011;23292;51.300;6.252;2023-01-25T09:34:01;54.70;;;28.10;;
37431;SDS011;23292;51.300;6.252;2023-01-25T09:36:28;55.08;;;28.63;;
37431;SDS011;23292;51.300;6.252;2023-01-25T09:38:54;59.28;;;30.00;;
37431;SDS011;23292;51.300;6.252;2023-01-25T09:41:29;57.90;;;29.08;;
37431;SDS011;23292;51.300;6.252;2023-01-25T09:47:12;57.80;;;28.75;;
37431;SDS011;23292;51.300;6.252;2023-01-25T09:55:30;57.85;;;28.92;;
37431;SDS011;23292;51.300;6.252;2023-01-25T09:57:59;58.97;;;28.00;;
37431;SDS011;23292;51.300;6.252;2023-01-25T10:00:32;52.42;;;27.95;;
37431;SDS011;23292;51.300;6.252;2023-01-25T10:05:48;51.05;;;26.58;;
37431;SDS011;23292;51.300;6.252;2023-01-25T10:10:54;54.53;;;26.70;;
37431;SDS011;23292;51.300;6.252;2023-01-25T10:13:47;53.83;;;27.05;;
37431;SDS011;23292;51.300;6.252;2023-01-25T10:16:24;50.67;;;25.90;;
37431;SDS011;23292;51.300;6.252;2023-01-25T10:19:09;50.17;;;26.50;;
37431;SDS011;23292;51.300;6.252;2023-01-25T10:21:43;56.70;;;26.45;;
37431;SDS011;23292;51.300;6.252;2023-01-25T10:24:38;52.58;;;26.67;;
37431;SDS011;23292;51.300;6.252;2023-01-25T10:27:01;57.38;;;28.45;;
37431;SDS011;23292;51.300;6.252;2023-01-25T10:29:49;55.72;;;26.60;;
37431;SDS011;23292;51.300;6.252;2023-01-25T10:32:24;53.28;;;26.27;;
37431;SDS011;23292;51.300;6.252;2023-01-25T10:35:16;54.00;;;27.15;;
37431;SDS011;23292;51.300;6.252;2023-01-25T10:38:01;53.28;;;25.20;;
37431;SDS011;23292;51.300;6.252;2023-01-25T10:40:34;48.08;;;25.42;;
37431;SDS011;23292;51.300;6.252;2023-01-25T10:43:19;49.08;;;24.73;;
37431;SDS011;23292;51.300;6.252;2023-01-25T10:45:47;52.88;;;25.65;;
37431;SDS011;23292;51.300;6.252;2023-01-25T10:48:19;53.50;;;25.75;;
37431;SDS011;23292;51.300;6.252;2023-01-25T10:50:49;54.90;;;27.50;;
37431;SDS011;23292;51.300;6.252;2023-01-25T10:55:58;54.65;;;26.73;;
37431;SDS011;23292;51.300;6.252;2023-01-25T10:58:35;57.75;;;27.67;;
37431;SDS011;23292;51.300;6.252;2023-01-25T11:01:04;52.03;;;26.50;;
37431;SDS011;23292;51.300;6.252;2023-01-25T11:03:38;58.83;;;27.60;;
37431;SDS011;23292;51.300;6.252;2023-01-25T11:06:07;54.70;;;27.92;;
37431;SDS011;23292;51.300;6.252;2023-01-25T11:08:38;56.45;;;28.45;;
37431;SDS011;23292;51.300;6.252;2023-01-25T11:11:24;55.65;;;27.30;;
37431;SDS011;23292;51.300;6.252;2023-01-25T11:13:55;50.65;;;26.98;;
37431;SDS011;23292;51.300;6.252;2023-01-25T11:16:32;50.60;;;27.35;;
37431;SDS011;23292;51.300;6.252;2023-01-25T11:19:02;57.95;;;28.23;;
37431;SDS011;23292;51.300;6.252;2023-01-25T11:21:52;56.80;;;27.92;;
37431;SDS011;23292;51.300;6.252;2023-01-25T11:24:20;55.35;;;27.48;;
37431;SDS011;23292;51.300;6.252;2023-01-25T11:27:10;60.13;;;28.92;;
37431;SDS011;23292;51.300;6.252;2023-01-25T11:29:38;56.63;;;28.13;;
37431;SDS011;23292;51.300;6.252;2023-01-25T11:32:13;57.47;;;29.90;;
37431;SDS011;23292;51.300;6.252;2023-01-25T11:34:48;58.90;;;28.83;;
37431;SDS011;23292;51.300;6.252;2023-01-25T11:37:27;55.70;;;27.85;;
37431;SDS011;23292;51.300;6.252;2023-01-25T11:40:13;59.45;;;28.73;;
37431;SDS011;23292;51.300;6.252;2023-01-25T11:48:23;60.28;;;29.35;;
37431;SDS011;23292;51.300;6.252;2023-01-25T11:51:12;59.67;;;30.23;;
37431;SDS011;23292;51.300;6.252;2023-01-25T11:53:45;73.65;;;32.80;;
37431;SDS011;23292;51.300;6.252;2023-01-25T12:02:24;60.15;;;31.52;;
37431;SDS011;23292;51.300;6.252;2023-01-25T12:05:20;64.07;;;31.33;;
37431;SDS011;23292;51.300;6.252;2023-01-25T12:25:11;76.82;;;34.42;;
37431;SDS011;23292;51.300;6.252;2023-01-25T12:46:56;71.50;;;32.28;;
37431;SDS011;23292;51.300;6.252;2023-01-25T12:49:32;77.07;;;35.05;;
37431;SDS011;23292;51.300;6.252;2023-01-25T12:52:00;70.60;;;33.30;;
37431;SDS011;23292;51.300;6.252;2023-01-25T12:54:41;71.70;;;35.33;;
37431;SDS011;23292;51.300;6.252;2023-01-25T12:57:15;71.15;;;33.47;;
37431;SDS011;23292;51.300;6.252;2023-01-25T12:59:54;71.43;;;34.20;;
37431;SDS011;23292;51.300;6.252;2023-01-25T13:02:33;76.93;;;33.55;;
37431;SDS011;23292;51.300;6.252;2023-01-25T13:07:54;73.30;;;35.33;;
37431;SDS011;23292;51.300;6.252;2023-01-25T13:10:39;74.38;;;34.53;;
37431;SDS011;23292;51.300;6.252;2023-01-25T13:13:21;72.93;;;35.03;;
37431;SDS011;23292;51.300;6.252;2023-01-25T13:15:53;82.40;;;36.60;;
37431;SDS011;23292;51.300;6.252;2023-01-25T13:21:00;83.68;;;37.70;;
37431;SDS011;23292;51.300;6.252;2023-01-25T13:23:38;79.35;;;37.20;;
37431;SDS011;23292;51.300;6.252;2023-01-25T13:28:54;86.82;;;39.92;;
37431;SDS011;23292;51.300;6.252;2023-01-25T13:34:55;96.63;;;41.35;;
37431;SDS011;23292;51.300;6.252;2023-01-25T13:37:18;89.63;;;39.95;;
37431;SDS011;23292;51.300;6.252;2023-01-25T13:45:48;102.55;;;45.55;;
37431;SDS011;23292;51.300;6.252;2023-01-25T13:48:18;102.70;;;44.30;;
37431;SDS011;23292;51.300;6.252;2023-01-25T13:50:54;93.88;;;44.05;;
37431;SDS011;23292;51.300;6.252;2023-01-25T13:53:26;99.25;;;44.85;;
37431;SDS011;23292;51.300;6.252;2023-01-25T13:55:58;102.32;;;44.47;;
37431;SDS011;23292;51.300;6.252;2023-01-25T14:00:54;101.15;;;44.42;;
37431;SDS011;23292;51.300;6.252;2023-01-25T14:03:25;103.75;;;46.15;;
37431;SDS011;23292;51.300;6.252;2023-01-25T14:06:01;96.18;;;42.63;;
37431;SDS011;23292;51.300;6.252;2023-01-25T14:08:29;98.07;;;43.58;;
37431;SDS011;23292;51.300;6.252;2023-01-25T14:10:57;92.00;;;41.58;;
37431;SDS011;23292;51.300;6.252;2023-01-25T14:13:24;88.25;;;41.03;;
37431;SDS011;23292;51.300;6.252;2023-01-25T14:16:00;90.38;;;40.58;;
37431;SDS011;23292;51.300;6.252;2023-01-25T14:18:30;91.85;;;39.65;;
37431;SDS011;23292;51.300;6.252;2023-01-25T14:21:09;90.60;;;40.72;;
37431;SDS011;23292;51.300;6.252;2023-01-25T14:23:38;94.03;;;40.27;;
37431;SDS011;23292;51.300;6.252;2023-01-25T14:26:18;94.25;;;41.08;;
37431;SDS011;23292;51.300;6.252;2023-01-25T14:28:53;96.88;;;41.90;;
37431;SDS011;23292;51.300;6.252;2023-01-25T14:31:31;91.65;;;42.08;;
37431;SDS011;23292;51.300;6.252;2023-01-25T14:34:01;86.13;;;39.80;;
37431;SDS011;23292;51.300;6.252;2023-01-25T14:36:30;90.85;;;41.45;;
37431;SDS011;23292;51.300;6.252;2023-01-25T14:38:59;88.97;;;41.20;;
37431;SDS011;23292;51.300;6.252;2023-01-25T14:41:36;91.05;;;41.53;;
37431;SDS011;23292;51.300;6.252;2023-01-25T14:44:25;82.60;;;37.05;;
37431;SDS011;23292;51.300;6.252;2023-01-25T14:47:18;87.03;;;40.33;;
37431;SDS011;23292;51.300;6.252;2023-01-25T14:49:48;90.70;;;40.08;;
37431;SDS011;23292;51.300;6.252;2023-01-25T14:52:18;93.45;;;41.28;;
37431;SDS011;23292;51.300;6.252;2023-01-25T14:54:53;86.85;;;40.47;;
37431;SDS011;23292;51.300;6.252;2023-01-25T14:57:36;92.82;;;40.55;;
37431;SDS011;23292;51.300;6.252;2023-01-25T15:00:24;95.55;;;44.67;;
37431;SDS011;23292;51.300;6.252;2023-01-25T15:02:57;101.50;;;44.33;;
37431;SDS011;23292;51.300;6.252;2023-01-25T15:05:27;98.57;;;43.58;;
37431;SDS011;23292;51.300;6.252;2023-01-25T15:08:41;103.10;;;44.63;;
37431;SDS011;23292;51.300;6.252;2023-01-25T15:11:01;95.13;;;41.92;;
37431;SDS011;23292;51.300;6.252;2023-01-25T15:13:59;102.53;;;44.30;;
37431;SDS011;23292;51.300;6.252;2023-01-25T15:16:33;101.35;;;45.55;;
37431;SDS011;23292;51.300;6.252;2023-01-25T15:19:01;118.55;;;48.63;;
37431;SDS011;23292;51.300;6.252;2023-01-25T15:21:29;110.55;;;48.53;;
37431;SDS011;23292;51.300;6.252;2023-01-25T15:23:58;106.28;;;46.40;;
37431;SDS011;23292;51.300;6.252;2023-01-25T15:26:30;107.13;;;48.05;;
37431;SDS011;23292;51.300;6.252;2023-01-25T15:28:59;109.45;;;47.45;;
37431;SDS011;23292;51.300;6.252;2023-01-25T15:31:37;114.82;;;46.70;;
37431;SDS011;23292;51.300;6.252;2023-01-25T15:34:04;114.30;;;49.15;;
37431;SDS011;23292;51.300;6.252;2023-01-25T15:36:31;109.35;;;47.28;;
37431;SDS011;23292;51.300;6.252;2023-01-25T15:38:58;112.15;;;47.53;;
37431;SDS011;23292;51.300;6.252;2023-01-25T15:41:25;107.60;;;46.33;;
37431;SDS011;23292;51.300;6.252;2023-01-25T15:43:52;118.38;;;48.95;;
37431;SDS011;23292;51.300;6.252;2023-01-25T15:46:25;122.00;;;51.47;;
37431;SDS011;23292;51.300;6.252;2023-01-25T15:48:54;128.73;;;53.10;;
37431;SDS011;23292;51.300;6.252;2023-01-25T15:51:21;127.68;;;52.45;;
37431;SDS011;23292;51.300;6.252;2023-01-25T15:53:48;137.35;;;54.55;;
37431;SDS011;23292;51.300;6.252;2023-01-25T15:56:19;125.18;;;53.00;;
37431;SDS011;23292;51.300;6.252;2023-01-25T15:58:53;121.88;;;50.88;;
37431;SDS011;23292;51.300;6.252;2023-01-25T16:01:21;111.35;;;46.90;;
37431;SDS011;23292;51.300;6.252;2023-01-25T16:03:55;102.45;;;46.53;;
37431;SDS011;23292;51.300;6.252;2023-01-25T16:08:50;101.28;;;42.67;;
37431;SDS011;23292;51.300;6.252;2023-01-25T16:11:16;99.18;;;42.13;;
37431;SDS011;23292;51.300;6.252;2023-01-25T16:13:43;99.55;;;42.25;;
37431;SDS011;23292;51.300;6.252;2023-01-25T16:16:17;105.10;;;45.83;;
37431;SDS011;23292;51.300;6.252;2023-01-25T16:18:46;108.88;;;44.17;;
37431;SDS011;23292;51.300;6.252;2023-01-25T16:21:13;111.82;;;46.90;;
37431;SDS011;23292;51.300;6.252;2023-01-25T16:23:40;113.35;;;47.28;;